createdAt,value
2022-08-03T00:00:12.472Z,73.79
2022-08-03T00:01:12.435Z,73.69
2022-08-03T00:02:12.428Z,73.69
2022-08-03T00:03:12.513Z,73.69
2022-08-03T00:04:12.429Z,73.88
2022-08-03T00:05:12.408Z,73.88
2022-08-03T00:06:12.392Z,73.69
2022-08-03T00:07:12.385Z,73.79
2022-08-03T00:08:12.368Z,73.99
2022-08-03T00:09:12.344Z,74.08
2022-08-03T00:10:12.332Z,74.08
2022-08-03T00:11:12.341Z,74.29
2022-08-03T00:12:12.306Z,74.52
2022-08-03T00:13:12.309Z,74.52
2022-08-03T00:14:12.290Z,74.62
2022-08-03T00:15:16.379Z,74.82
2022-08-03T00:16:12.273Z,74.62
2022-08-03T00:17:12.247Z,74.82
2022-08-03T00:18:12.224Z,74.92
2022-08-03T00:19:12.229Z,75.02
2022-08-03T00:20:12.220Z,75.02
2022-08-03T00:21:12.204Z,75.12
2022-08-03T00:22:12.198Z,75.12
2022-08-03T00:23:12.191Z,75.22
2022-08-03T00:24:12.159Z,75.22
2022-08-03T00:25:12.168Z,75.22
2022-08-03T00:26:12.168Z,75.32
2022-08-03T00:27:12.137Z,75.32
2022-08-03T00:28:12.114Z,75.22
2022-08-03T00:29:12.074Z,75.32
2022-08-03T00:30:12.077Z,75.35
2022-08-03T00:31:13.329Z,75.35
2022-08-03T00:32:12.172Z,75.56
2022-08-03T00:33:12.058Z,75.46
2022-08-03T00:34:12.493Z,75.35
2022-08-03T00:35:18.230Z,75.35
2022-08-03T00:36:13.022Z,75.46
2022-08-03T00:37:11.995Z,75.46
2022-08-03T00:38:11.971Z,75.35
2022-08-03T00:39:11.958Z,75.46
2022-08-03T00:40:11.945Z,75.46
2022-08-03T00:41:11.962Z,75.46
2022-08-03T00:42:11.949Z,75.46
2022-08-03T00:43:11.915Z,75.46
2022-08-03T00:44:11.907Z,75.46
2022-08-03T00:45:11.908Z,75.46
2022-08-03T00:46:11.895Z,75.56
2022-08-03T00:47:11.881Z,75.56
2022-08-03T00:48:29.557Z,75.56
2022-08-03T00:49:12.898Z,75.65
2022-08-03T00:50:11.830Z,75.65
2022-08-03T00:51:11.826Z,75.65
2022-08-03T00:52:11.804Z,75.79
2022-08-03T00:53:11.798Z,75.69
2022-08-03T00:54:11.779Z,75.79
2022-08-03T00:55:11.763Z,75.79
2022-08-03T00:56:11.754Z,75.89
2022-08-03T00:57:11.726Z,75.89
2022-08-03T00:58:11.724Z,75.79
2022-08-03T00:59:11.718Z,75.89
2022-08-03T01:00:11.709Z,75.89
2022-08-03T01:01:11.724Z,75.89
2022-08-03T01:02:11.678Z,75.99
2022-08-03T01:03:11.644Z,75.99
2022-08-03T01:04:11.663Z,75.99
2022-08-03T01:05:11.636Z,75.99
2022-08-03T01:06:11.645Z,75.99
2022-08-03T01:07:11.583Z,75.99
2022-08-03T01:08:11.585Z,75.99
2022-08-03T01:09:11.575Z,75.99
2022-08-03T01:10:11.554Z,76.09
2022-08-03T01:11:11.567Z,76.09
2022-08-03T01:12:11.557Z,76.09
2022-08-03T01:14:00.289Z,76.09
2022-08-03T01:14:18.955Z,75.89
2022-08-03T01:15:12.506Z,76.09
2022-08-03T01:16:11.523Z,76.09
2022-08-03T01:17:11.478Z,76.09
2022-08-03T01:18:11.474Z,76.19
2022-08-03T01:19:11.467Z,76.19
2022-08-03T01:20:11.434Z,76.19
2022-08-03T01:21:11.454Z,76.19
2022-08-03T01:22:11.426Z,76.23
2022-08-03T01:23:11.435Z,76.33
2022-08-03T01:24:11.384Z,76.53
2022-08-03T01:25:11.378Z,76.43
2022-08-03T01:26:11.378Z,76.43
2022-08-03T01:27:11.342Z,76.53
2022-08-03T01:28:11.370Z,76.43
2022-08-03T01:29:11.326Z,76.53
2022-08-03T01:30:11.318Z,76.53
2022-08-03T01:31:11.339Z,76.63
2022-08-03T01:32:58.714Z,76.73
2022-08-03T01:33:12.262Z,76.83
2022-08-03T01:34:14.679Z,77.03
2022-08-03T01:35:11.259Z,77.13
2022-08-03T01:36:11.259Z,77.33
2022-08-03T01:37:11.227Z,77.43
2022-08-03T01:38:11.231Z,77.53
2022-08-03T01:39:11.206Z,77.53
2022-08-03T01:40:11.190Z,77.63
2022-08-03T01:41:11.175Z,77.63
2022-08-03T01:42:11.166Z,77.73
2022-08-03T01:43:11.157Z,77.63
2022-08-03T01:44:29.220Z,77.53
2022-08-03T01:45:12.125Z,77.53
2022-08-03T01:46:11.138Z,77.53
2022-08-03T01:47:11.096Z,77.53
2022-08-03T01:48:11.098Z,77.53
2022-08-03T01:49:11.104Z,77.63
2022-08-03T01:50:11.058Z,77.63
2022-08-03T01:51:11.053Z,77.63
2022-08-03T01:52:11.023Z,77.73
2022-08-03T01:53:11.029Z,77.63
2022-08-03T01:54:11.016Z,77.63
2022-08-03T01:55:11.004Z,77.73
2022-08-03T01:56:11.005Z,77.73
2022-08-03T01:57:10.963Z,77.93
2022-08-03T01:58:10.955Z,78.03
2022-08-03T01:59:10.947Z,78.03
2022-08-03T02:00:10.936Z,78.13
2022-08-03T02:01:10.983Z,78.13
2022-08-03T02:02:15.965Z,78.23
2022-08-03T02:03:11.893Z,78.33
2022-08-03T02:04:10.877Z,78.33
2022-08-03T02:05:11.329Z,78.53
2022-08-03T02:07:02.074Z,78.56
2022-08-03T02:07:11.856Z,78.53
2022-08-03T02:08:10.824Z,78.47
2022-08-03T02:09:10.823Z,78.53
2022-08-03T02:10:10.791Z,78.56
2022-08-03T02:11:10.784Z,78.67
2022-08-03T02:12:10.779Z,78.67
2022-08-03T02:13:10.761Z,78.77
2022-08-03T02:14:10.732Z,78.77
2022-08-03T02:15:10.721Z,78.67
2022-08-03T02:16:10.738Z,78.67
2022-08-03T02:17:10.741Z,78.77
2022-08-03T02:18:10.695Z,78.77
2022-08-03T02:19:10.674Z,78.86
2022-08-03T02:20:10.659Z,78.97
2022-08-03T02:21:11.206Z,79.17
2022-08-03T02:22:10.663Z,79.17
2022-08-03T02:23:10.630Z,79.27
2022-08-03T02:24:10.601Z,79.27
2022-08-03T02:25:10.615Z,79.36
2022-08-03T02:26:10.604Z,79.36
2022-08-03T02:27:10.591Z,79.47
2022-08-03T02:28:10.554Z,79.47
2022-08-03T02:29:10.563Z,79.47
2022-08-03T02:30:10.530Z,79.47
2022-08-03T02:31:10.531Z,79.47
2022-08-03T02:32:10.509Z,79.57
2022-08-03T02:33:10.503Z,79.67
2022-08-03T02:34:10.482Z,79.71
2022-08-03T02:35:10.481Z,79.71
2022-08-03T02:36:10.464Z,79.80
2022-08-03T02:37:10.454Z,79.91
2022-08-03T02:38:10.428Z,79.91
2022-08-03T02:39:10.427Z,80.00
2022-08-03T02:40:10.401Z,80.00
2022-08-03T02:41:10.382Z,80.11
2022-08-03T02:42:10.495Z,80.11
2022-08-03T02:43:10.358Z,80.21
2022-08-03T02:44:10.340Z,80.21
2022-08-03T02:45:10.333Z,80.11
2022-08-03T02:46:10.354Z,80.11
2022-08-03T02:47:10.330Z,80.11
2022-08-03T02:48:10.316Z,80.11
2022-08-03T02:49:40.531Z,80.00
2022-08-03T02:50:11.319Z,79.91
2022-08-03T02:51:10.272Z,79.91
2022-08-03T02:52:12.590Z,79.80
2022-08-03T02:53:11.230Z,79.71
2022-08-03T02:54:10.234Z,79.71
2022-08-03T02:55:10.200Z,79.60
2022-08-03T02:56:10.194Z,79.60
2022-08-03T02:57:10.198Z,79.60
2022-08-03T02:58:10.174Z,79.50
2022-08-03T02:59:10.182Z,79.50
2022-08-03T03:00:10.130Z,79.30
2022-08-03T03:01:10.248Z,79.41
2022-08-03T03:02:10.169Z,79.30
2022-08-03T03:03:10.098Z,79.41
2022-08-03T03:04:10.102Z,79.54
2022-08-03T03:05:55.201Z,79.64
2022-08-03T03:06:11.080Z,79.64
2022-08-03T03:07:10.069Z,79.64
2022-08-03T03:08:17.918Z,79.74
2022-08-03T03:09:11.042Z,79.74
2022-08-03T03:10:10.000Z,79.85
2022-08-03T03:11:10.016Z,79.85
2022-08-03T03:12:10.039Z,79.85
2022-08-03T03:13:09.983Z,79.94
2022-08-03T03:14:09.968Z,79.94
2022-08-03T03:15:09.963Z,79.85
2022-08-03T03:16:09.939Z,80.04
2022-08-03T03:17:09.936Z,80.15
2022-08-03T03:18:09.903Z,80.15
2022-08-03T03:19:09.901Z,80.15
2022-08-03T03:20:09.879Z,80.15
2022-08-03T03:21:09.882Z,80.24
2022-08-03T03:22:09.910Z,80.35
2022-08-03T03:23:09.871Z,80.24
2022-08-03T03:24:09.850Z,80.24
2022-08-03T03:25:09.828Z,80.24
2022-08-03T03:26:09.835Z,80.15
2022-08-03T03:27:09.813Z,80.24
2022-08-03T03:28:09.779Z,80.24
2022-08-03T03:29:09.789Z,80.35
2022-08-03T03:30:09.771Z,80.35
2022-08-03T03:31:09.760Z,80.24
2022-08-03T03:32:09.877Z,80.04
2022-08-03T03:33:09.722Z,80.04
2022-08-03T03:34:09.698Z,79.94
2022-08-03T03:35:09.702Z,79.85
2022-08-03T03:36:09.692Z,79.74
2022-08-03T03:37:09.683Z,79.64
2022-08-03T03:38:09.657Z,79.44
2022-08-03T03:39:15.254Z,79.44
2022-08-03T03:40:10.631Z,79.44
2022-08-03T03:41:09.623Z,79.34
2022-08-03T03:42:09.704Z,79.34
2022-08-03T03:43:09.593Z,79.44
2022-08-03T03:44:09.582Z,79.34
2022-08-03T03:45:09.560Z,79.34
2022-08-03T03:46:09.559Z,79.44
2022-08-03T03:47:09.548Z,79.44
2022-08-03T03:48:09.540Z,79.44
2022-08-03T03:49:09.560Z,79.64
2022-08-03T03:50:09.510Z,79.64
2022-08-03T03:51:09.492Z,79.64
2022-08-03T03:52:09.544Z,79.64
2022-08-03T03:53:09.462Z,79.54
2022-08-03T03:54:09.464Z,79.54
2022-08-03T03:55:09.441Z,79.54
2022-08-03T03:56:09.415Z,79.64
2022-08-03T03:57:09.417Z,79.64
2022-08-03T03:58:09.386Z,79.54
2022-08-03T03:59:09.390Z,79.54
2022-08-03T04:00:09.373Z,79.64
2022-08-03T04:01:09.386Z,79.74
2022-08-03T04:02:09.385Z,79.74
2022-08-03T04:03:09.343Z,79.74
2022-08-03T04:04:09.307Z,79.74
2022-08-03T04:05:09.299Z,79.64
2022-08-03T04:06:09.307Z,79.44
2022-08-03T04:07:09.301Z,79.34
2022-08-03T04:08:09.255Z,79.34
2022-08-03T04:09:09.261Z,79.34
2022-08-03T04:10:14.684Z,79.24
2022-08-03T04:11:10.241Z,79.24
2022-08-03T04:12:09.249Z,79.14
2022-08-03T04:13:09.199Z,79.14
2022-08-03T04:14:09.179Z,79.14
2022-08-03T04:15:09.180Z,79.14
2022-08-03T04:16:09.160Z,79.04
2022-08-03T04:17:09.188Z,79.04
2022-08-03T04:18:09.139Z,78.94
2022-08-03T04:19:09.126Z,79.04
2022-08-03T04:20:09.118Z,78.94
2022-08-03T04:21:09.122Z,79.04
2022-08-03T04:22:09.123Z,78.94
2022-08-03T04:23:13.558Z,78.84
2022-08-03T04:24:10.068Z,78.84
2022-08-03T04:25:09.047Z,78.94
2022-08-03T04:26:09.038Z,78.94
2022-08-03T04:27:09.049Z,79.08
2022-08-03T04:28:30.530Z,79.18
2022-08-03T04:29:10.009Z,79.14
2022-08-03T04:30:09.002Z,79.18
2022-08-03T04:31:08.980Z,79.24
2022-08-03T04:32:09.053Z,79.18
2022-08-03T04:33:08.950Z,79.24
2022-08-03T04:34:08.927Z,79.24
2022-08-03T04:35:08.931Z,79.24
2022-08-03T04:36:08.910Z,79.14
2022-08-03T04:37:08.917Z,79.14
2022-08-03T04:38:08.888Z,79.14
2022-08-03T04:39:08.857Z,78.94
2022-08-03T04:40:08.857Z,78.84
2022-08-03T04:41:08.860Z,78.74
2022-08-03T04:42:09.234Z,78.54
2022-08-03T04:43:08.807Z,78.64
2022-08-03T04:44:08.805Z,78.54
2022-08-03T04:45:08.797Z,78.64
2022-08-03T04:46:08.766Z,78.54
2022-08-03T04:47:08.788Z,78.34
2022-08-03T04:48:08.759Z,78.44
2022-08-03T04:49:08.780Z,78.44
2022-08-03T04:50:12.320Z,78.24
2022-08-03T04:51:08.730Z,78.34
2022-08-03T04:52:08.713Z,78.34
2022-08-03T04:53:08.716Z,78.34
2022-08-03T04:54:08.683Z,78.04
2022-08-03T04:55:08.675Z,78.34
2022-08-03T04:56:08.644Z,78.44
2022-08-03T04:57:08.659Z,78.14
2022-08-03T04:58:08.630Z,78.24
2022-08-03T04:59:08.625Z,78.34
2022-08-03T05:00:08.590Z,78.34
2022-08-03T05:01:08.586Z,78.24
2022-08-03T05:02:08.689Z,78.20
2022-08-03T05:03:23.466Z,77.60
2022-08-03T05:04:09.558Z,77.91
2022-08-03T05:05:08.534Z,77.60
2022-08-03T05:06:11.008Z,77.80
2022-08-03T05:07:11.493Z,78.10
2022-08-03T05:08:11.109Z,78.10
2022-08-03T05:09:08.505Z,78.10
2022-08-03T05:10:15.021Z,78.00
2022-08-03T05:11:09.470Z,77.80
2022-08-03T05:12:08.463Z,77.70
2022-08-03T05:13:08.444Z,77.91
2022-08-03T05:14:08.429Z,77.70
2022-08-03T05:15:08.412Z,77.80
2022-08-03T05:16:08.383Z,77.70
2022-08-03T05:17:08.376Z,77.80
2022-08-03T05:18:13.367Z,78.00
2022-08-03T05:20:19.537Z,78.10
2022-08-03T05:21:19.508Z,78.00
2022-08-03T05:22:22.211Z,78.10
2022-08-03T05:23:20.228Z,78.10
2022-08-03T05:24:19.481Z,78.10
2022-08-03T05:25:22.249Z,78.10
2022-08-03T05:26:20.469Z,77.91
2022-08-03T05:27:19.552Z,77.80
2022-08-03T05:28:19.455Z,77.30
2022-08-03T05:29:19.411Z,77.60
2022-08-03T05:30:30.540Z,77.40
2022-08-03T05:31:20.402Z,77.70
2022-08-03T05:32:19.575Z,77.80
2022-08-03T05:33:19.368Z,77.80
2022-08-03T05:34:19.362Z,77.60
2022-08-03T05:36:00.609Z,77.60
2022-08-03T05:36:20.342Z,77.47
2022-08-03T05:37:19.321Z,77.67
2022-08-03T05:38:23.730Z,77.47
2022-08-03T05:39:19.284Z,77.67
2022-08-03T05:40:19.284Z,77.47
2022-08-03T05:41:21.559Z,77.56
2022-08-03T05:42:19.251Z,77.67
2022-08-03T05:43:19.269Z,77.86
2022-08-03T05:44:19.228Z,77.47
2022-08-03T05:45:19.210Z,77.06
2022-08-03T05:46:19.212Z,77.06
2022-08-03T05:47:19.190Z,77.47
2022-08-03T05:48:19.203Z,77.47
2022-08-03T05:49:19.230Z,77.26
2022-08-03T05:50:19.150Z,77.17
2022-08-03T05:51:19.132Z,77.17
2022-08-03T05:52:19.133Z,77.56
2022-08-03T05:53:19.111Z,77.47
2022-08-03T05:54:19.104Z,76.76
2022-08-03T05:55:19.092Z,76.37
2022-08-03T05:56:19.072Z,75.76
2022-08-03T05:57:19.068Z,75.96
2022-08-03T05:58:19.049Z,75.87
2022-08-03T05:59:37.715Z,75.76
2022-08-03T06:00:20.012Z,75.76
2022-08-03T06:01:19.054Z,75.96
2022-08-03T06:02:19.034Z,75.93
2022-08-03T06:03:19.002Z,75.63
2022-08-03T06:04:18.966Z,75.73
2022-08-03T06:05:18.959Z,76.13
2022-08-03T06:06:18.962Z,76.13
2022-08-03T06:07:18.932Z,75.73
2022-08-03T06:08:18.921Z,75.73
2022-08-03T06:09:18.943Z,76.03
2022-08-03T06:10:37.535Z,76.33
2022-08-03T06:11:19.882Z,76.23
2022-08-03T06:12:19.195Z,76.23
2022-08-03T06:13:18.854Z,76.43
2022-08-03T06:14:18.855Z,76.43
2022-08-03T06:15:18.810Z,76.83
2022-08-03T06:16:18.821Z,76.63
2022-08-03T06:17:18.816Z,76.63
2022-08-03T06:18:18.792Z,76.73
2022-08-03T06:19:18.794Z,76.83
2022-08-03T06:20:18.749Z,76.83
2022-08-03T06:21:18.761Z,76.73
2022-08-03T06:22:18.941Z,75.63
2022-08-03T06:23:18.713Z,75.63
2022-08-03T06:24:18.735Z,75.89
2022-08-03T06:25:21.368Z,75.13
2022-08-03T06:26:18.686Z,75.59
2022-08-03T06:27:18.672Z,75.59
2022-08-03T06:28:51.453Z,75.09
2022-08-03T06:29:19.652Z,74.89
2022-08-03T06:30:21.281Z,74.69
2022-08-03T06:31:18.615Z,74.49
2022-08-03T06:32:18.973Z,74.89
2022-08-03T06:33:18.592Z,74.59
2022-08-03T06:34:34.447Z,74.29
2022-08-03T06:35:19.562Z,74.49
2022-08-03T06:36:18.540Z,74.49
2022-08-03T06:37:18.519Z,74.16
2022-08-03T06:38:18.522Z,73.96
2022-08-03T06:39:18.525Z,74.36
2022-08-03T06:40:22.020Z,73.96
2022-08-03T06:41:19.483Z,73.72
2022-08-03T06:42:18.632Z,73.92
2022-08-03T06:43:18.470Z,73.42
2022-08-03T06:44:18.452Z,73.42
2022-08-03T06:45:18.421Z,73.19
2022-08-03T06:46:18.409Z,73.19
2022-08-03T06:47:18.397Z,73.49
2022-08-03T06:48:18.402Z,72.49
2022-08-03T06:49:18.438Z,72.45
2022-08-03T06:50:20.652Z,72.65
2022-08-03T06:51:18.364Z,72.85
2022-08-03T06:52:38.396Z,72.45
2022-08-03T06:53:19.909Z,71.75
2022-08-03T06:54:18.330Z,71.75
2022-08-03T06:55:18.286Z,71.42
2022-08-03T06:56:18.289Z,71.22
2022-08-03T06:57:18.268Z,71.42
2022-08-03T06:58:18.250Z,71.02
2022-08-03T07:00:10.829Z,70.79
2022-08-03T07:00:19.254Z,70.19
2022-08-03T07:01:18.877Z,70.39
2022-08-03T07:02:19.283Z,70.19
2022-08-03T07:03:18.204Z,70.16
2022-08-03T07:04:18.193Z,69.76
2022-08-03T07:05:18.173Z,69.86
2022-08-03T07:06:18.142Z,70.06
2022-08-03T07:07:18.129Z,70.03
2022-08-03T07:08:18.119Z,69.73
2022-08-03T07:09:19.147Z,69.62
2022-08-03T07:10:18.107Z,69.13
2022-08-03T07:11:18.092Z,69.23
2022-08-03T07:12:18.394Z,68.90
2022-08-03T07:13:18.061Z,68.00
2022-08-03T07:14:18.038Z,68.00
2022-08-03T07:15:20.688Z,68.50
2022-08-03T07:16:19.025Z,68.60
2022-08-03T07:17:18.040Z,68.56
2022-08-03T07:18:18.003Z,68.27
2022-08-03T07:19:18.979Z,68.27
2022-08-03T07:20:17.978Z,67.27
2022-08-03T07:21:17.960Z,66.87
2022-08-03T07:22:18.177Z,66.74
2022-08-03T07:23:18.969Z,66.44
2022-08-03T07:24:17.931Z,66.14
2022-08-03T07:25:17.888Z,65.84
2022-08-03T07:26:17.891Z,65.45
2022-08-03T07:27:17.895Z,65.42
2022-08-03T07:28:17.862Z,65.12
2022-08-03T07:29:17.857Z,66.01
2022-08-03T07:30:17.839Z,64.79
2022-08-03T07:31:17.836Z,64.89
2022-08-03T07:32:18.130Z,64.39
2022-08-03T07:33:17.812Z,63.89
2022-08-03T07:34:17.792Z,64.00
2022-08-03T07:35:24.730Z,64.66
2022-08-03T07:36:18.762Z,64.95
2022-08-03T07:37:17.737Z,64.16
2022-08-03T07:38:20.912Z,63.96
2022-08-03T07:39:18.270Z,63.17
2022-08-03T07:40:17.716Z,63.37
2022-08-03T07:41:17.714Z,63.57
2022-08-03T07:42:18.161Z,64.53
2022-08-03T07:43:17.656Z,62.94
2022-08-03T07:44:17.671Z,63.43
2022-08-03T07:45:17.670Z,63.31
2022-08-03T07:46:17.639Z,62.91
2022-08-03T07:47:22.736Z,63.31
2022-08-03T07:48:18.623Z,63.31
2022-08-03T07:49:17.654Z,63.70
2022-08-03T07:50:17.579Z,63.37
2022-08-03T07:51:17.568Z,63.48
2022-08-03T07:52:17.807Z,61.99
2022-08-03T07:53:17.542Z,62.18
2022-08-03T07:54:17.530Z,61.59
2022-08-03T07:55:17.496Z,61.99
2022-08-03T07:56:17.501Z,62.58
2022-08-03T07:57:17.491Z,63.08
2022-08-03T07:58:22.006Z,62.58
2022-08-03T07:59:18.448Z,62.41
2022-08-03T08:00:17.446Z,62.08
2022-08-03T08:01:17.492Z,61.79
2022-08-03T08:02:17.650Z,61.19
2022-08-03T08:03:17.443Z,61.10
2022-08-03T08:04:17.396Z,62.08
2022-08-03T08:05:17.366Z,61.69
2022-08-03T08:06:17.377Z,61.49
2022-08-03T08:07:17.350Z,62.05
2022-08-03T08:08:17.354Z,62.35
2022-08-03T08:09:17.351Z,61.46
2022-08-03T08:10:17.332Z,62.26
2022-08-03T08:11:17.310Z,61.86
2022-08-03T08:12:17.735Z,61.76
2022-08-03T08:13:17.293Z,60.86
2022-08-03T08:14:17.280Z,60.44
2022-08-03T08:15:17.273Z,60.24
2022-08-03T08:16:17.248Z,60.44
2022-08-03T08:17:17.236Z,61.73
2022-08-03T08:18:17.220Z,61.04
2022-08-03T08:19:17.195Z,60.54
2022-08-03T08:20:17.478Z,59.45
2022-08-03T08:21:18.206Z,60.51
2022-08-03T08:22:17.447Z,60.81
2022-08-03T08:23:42.462Z,61.21
2022-08-03T08:24:20.383Z,60.91
2022-08-03T08:25:17.131Z,59.42
2022-08-03T08:26:17.109Z,59.22
2022-08-03T08:27:17.131Z,59.22
2022-08-03T08:28:22.363Z,59.62
2022-08-03T08:29:18.092Z,60.78
2022-08-03T08:30:19.344Z,60.28
2022-08-03T08:31:17.037Z,58.70
2022-08-03T08:32:17.247Z,58.80
2022-08-03T08:33:23.317Z,58.80
2022-08-03T08:34:18.021Z,59.09
2022-08-03T08:35:17.000Z,58.60
2022-08-03T08:36:16.995Z,58.57
2022-08-03T08:37:17.103Z,59.36
2022-08-03T08:38:16.966Z,59.27
2022-08-03T08:39:17.504Z,58.97
2022-08-03T08:40:16.949Z,58.77
2022-08-03T08:41:16.925Z,58.18
2022-08-03T08:42:17.188Z,58.67
2022-08-03T08:43:16.971Z,58.28
2022-08-03T08:44:16.877Z,57.75
2022-08-03T08:45:16.889Z,57.65
2022-08-03T08:46:23.901Z,57.65
2022-08-03T08:47:17.836Z,57.85
2022-08-03T08:48:16.819Z,57.95
2022-08-03T08:49:16.897Z,58.94
2022-08-03T08:50:27.213Z,57.06
2022-08-03T08:51:17.807Z,57.46
2022-08-03T08:52:24.813Z,57.46
2022-08-03T08:53:19.858Z,57.46
2022-08-03T08:54:17.782Z,58.05
2022-08-03T08:55:16.738Z,56.46
2022-08-03T08:56:16.725Z,55.85
2022-08-03T08:57:40.804Z,55.75
2022-08-03T08:58:19.809Z,57.33
2022-08-03T08:59:16.690Z,57.62
2022-08-03T09:00:17.007Z,57.03
2022-08-03T09:01:16.723Z,57.43
2022-08-03T09:02:16.853Z,56.14
2022-08-03T09:03:22.561Z,57.03
2022-08-03T09:04:17.634Z,57.03
2022-08-03T09:05:16.618Z,56.93
2022-08-03T09:06:16.679Z,56.93
2022-08-03T09:07:29.086Z,56.74
2022-08-03T09:08:17.556Z,57.10
2022-08-03T09:10:04.814Z,56.91
2022-08-03T09:10:17.527Z,54.93
2022-08-03T09:11:16.542Z,55.22
2022-08-03T09:12:39.071Z,56.12
2022-08-03T09:13:17.556Z,54.14
2022-08-03T09:14:37.097Z,55.43
2022-08-03T09:15:17.731Z,55.43
2022-08-03T09:16:16.490Z,55.92
2022-08-03T09:17:16.970Z,55.03
2022-08-03T09:18:16.458Z,55.13
2022-08-03T09:19:16.459Z,54.73
2022-08-03T09:20:16.408Z,55.20
2022-08-03T09:21:31.063Z,55.89
2022-08-03T09:22:17.426Z,54.51
2022-08-03T09:23:51.733Z,55.10
2022-08-03T09:24:37.340Z,55.00
2022-08-03T09:25:25.187Z,55.49
2022-08-03T09:26:17.328Z,55.20
2022-08-03T09:27:16.502Z,54.90
2022-08-03T09:28:52.426Z,54.21
2022-08-03T09:29:17.333Z,55.60
2022-08-03T09:30:33.886Z,53.69
2022-08-03T09:31:17.255Z,54.31
2022-08-03T09:32:16.264Z,53.42
2022-08-03T09:33:16.285Z,55.30
2022-08-03T09:34:16.278Z,54.90
2022-08-03T09:35:27.902Z,54.68
2022-08-03T09:36:17.245Z,54.38
2022-08-03T09:37:16.443Z,53.79
2022-08-03T09:38:16.198Z,54.48
2022-08-03T09:39:16.181Z,54.28
2022-08-03T09:40:16.223Z,53.50
2022-08-03T09:41:16.147Z,54.68
2022-08-03T09:42:16.158Z,54.85
2022-08-03T09:43:16.115Z,54.65
2022-08-03T09:44:24.792Z,54.46
2022-08-03T09:45:17.087Z,54.75
2022-08-03T09:46:16.079Z,53.74
2022-08-03T09:47:16.398Z,53.25
2022-08-03T09:48:16.067Z,54.53
2022-08-03T09:49:16.140Z,53.74
2022-08-03T09:50:16.034Z,54.53
2022-08-03T09:52:33.194Z,55.62
2022-08-03T09:52:37.731Z,53.54
2022-08-03T09:53:17.021Z,54.23
2022-08-03T09:54:20.590Z,53.64
2022-08-03T09:56:30.719Z,53.44
2022-08-03T09:56:35.167Z,53.25
2022-08-03T09:57:17.197Z,54.13
2022-08-03T09:58:15.908Z,53.44
2022-08-03T09:59:15.926Z,54.63
2022-08-03T10:00:15.900Z,54.43
2022-08-03T10:01:23.960Z,53.74
2022-08-03T10:02:16.855Z,51.97
2022-08-03T10:03:15.854Z,52.06
2022-08-03T10:04:15.838Z,52.06
2022-08-03T10:05:19.786Z,53.44
2022-08-03T10:06:15.813Z,52.16
2022-08-03T10:07:15.971Z,52.43
2022-08-03T10:08:15.775Z,51.74
2022-08-03T10:09:15.801Z,51.94
2022-08-03T10:10:30.821Z,50.95
2022-08-03T10:11:16.787Z,51.35
2022-08-03T10:12:15.738Z,52.11
2022-08-03T10:13:15.739Z,51.72
2022-08-03T10:14:15.749Z,50.93
2022-08-03T10:16:21.867Z,52.21
2022-08-03T10:16:22.769Z,50.63
2022-08-03T10:17:16.902Z,50.44
2022-08-03T10:18:15.667Z,51.03
2022-08-03T10:19:15.794Z,51.62
2022-08-03T10:20:15.659Z,51.42
2022-08-03T10:21:15.639Z,50.93
2022-08-03T10:22:15.614Z,52.01
2022-08-03T10:23:15.642Z,52.80
2022-08-03T10:24:15.592Z,51.15
2022-08-03T10:25:15.577Z,51.25
2022-08-03T10:26:15.579Z,51.15
2022-08-03T10:27:15.841Z,51.45
2022-08-03T10:28:15.534Z,52.23
2022-08-03T10:29:15.558Z,52.73
2022-08-03T10:30:15.525Z,51.81
2022-08-03T10:31:15.532Z,51.72
2022-08-03T10:32:15.506Z,50.63
2022-08-03T10:33:50.012Z,50.24
2022-08-03T10:34:16.467Z,49.85
2022-08-03T10:35:20.844Z,51.12
2022-08-03T10:36:16.456Z,49.62
2022-08-03T10:37:15.426Z,49.13
2022-08-03T10:38:15.420Z,49.43
2022-08-03T10:39:15.939Z,49.52
2022-08-03T10:40:27.936Z,50.42
2022-08-03T10:41:16.398Z,49.82
2022-08-03T10:42:15.357Z,49.33
2022-08-03T10:43:15.358Z,49.04
2022-08-03T10:44:15.338Z,49.52
2022-08-03T10:45:15.340Z,50.31
2022-08-03T10:46:15.344Z,50.51
2022-08-03T10:47:15.375Z,49.23
2022-08-03T10:48:15.283Z,50.61
2022-08-03T10:49:15.324Z,49.13
2022-08-03T10:50:15.277Z,50.02
2022-08-03T10:51:15.245Z,49.50
2022-08-03T10:52:32.901Z,47.83
2022-08-03T10:53:18.599Z,48.71
2022-08-03T10:54:15.195Z,47.34
2022-08-03T10:55:15.211Z,48.03
2022-08-03T10:56:15.185Z,47.04
2022-08-03T10:57:16.289Z,48.52
2022-08-03T10:58:15.155Z,48.52
2022-08-03T10:59:28.149Z,48.32
2022-08-03T11:00:16.126Z,48.49
2022-08-03T11:01:15.215Z,47.73
2022-08-03T11:02:15.119Z,47.73
2022-08-03T11:03:15.095Z,48.22
2022-08-03T11:04:16.970Z,47.92
2022-08-03T11:05:15.077Z,48.52
2022-08-03T11:06:15.051Z,47.73
2022-08-03T11:07:15.201Z,47.63
2022-08-03T11:08:15.038Z,48.82
2022-08-03T11:09:15.069Z,49.01
2022-08-03T11:10:15.011Z,48.99
2022-08-03T11:11:14.986Z,47.71
2022-08-03T11:12:14.974Z,47.12
2022-08-03T11:13:14.970Z,47.12
2022-08-03T11:14:14.949Z,48.00
2022-08-03T11:15:14.948Z,47.61
2022-08-03T11:16:18.392Z,47.02
2022-08-03T11:17:16.320Z,47.88
2022-08-03T11:18:14.910Z,47.09
2022-08-03T11:19:14.899Z,47.09
2022-08-03T11:20:14.865Z,48.18
2022-08-03T11:21:14.875Z,47.58
2022-08-03T11:22:14.826Z,47.58
2022-08-03T11:23:14.835Z,46.41
2022-08-03T11:24:14.837Z,47.39
2022-08-03T11:25:53.893Z,47.49
2022-08-03T11:26:15.824Z,47.09
2022-08-03T11:27:14.789Z,47.58
2022-08-03T11:28:14.759Z,48.20
2022-08-03T11:29:14.756Z,49.38
2022-08-03T11:30:14.758Z,48.39
2022-08-03T11:31:32.693Z,49.28
2022-08-03T11:32:19.518Z,49.97
2022-08-03T11:33:14.686Z,48.89
2022-08-03T11:34:14.699Z,47.69
2022-08-03T11:35:14.668Z,48.47
2022-08-03T11:36:14.664Z,48.08
2022-08-03T11:37:15.677Z,47.39
2022-08-03T11:38:14.670Z,48.47
2022-08-03T11:39:16.813Z,49.65
2022-08-03T11:40:14.608Z,49.06
2022-08-03T11:41:14.608Z,48.57
2022-08-03T11:42:14.580Z,48.96
2022-08-03T11:43:14.606Z,47.58
2022-08-03T11:44:14.565Z,47.41
2022-08-03T11:45:14.542Z,47.41
2022-08-03T11:46:14.541Z,47.41
2022-08-03T11:47:15.531Z,48.10
2022-08-03T11:48:14.518Z,47.22
2022-08-03T11:49:14.697Z,47.19
2022-08-03T11:50:14.476Z,47.39
2022-08-03T11:51:14.470Z,47.88
2022-08-03T11:52:14.463Z,48.77
2022-08-03T11:53:14.439Z,48.45
2022-08-03T11:54:14.419Z,47.15
2022-08-03T11:55:14.437Z,46.58
2022-08-03T11:56:14.405Z,47.56
2022-08-03T11:57:14.398Z,46.78
2022-08-03T11:59:17.242Z,48.25
2022-08-03T11:59:19.893Z,47.66
2022-08-03T12:00:15.360Z,46.88
2022-08-03T12:01:14.346Z,47.47
2022-08-03T12:02:14.310Z,47.36
2022-08-03T12:03:14.352Z,47.86
2022-08-03T12:04:14.286Z,47.66
2022-08-03T12:05:14.307Z,48.25
2022-08-03T12:06:14.278Z,46.88
2022-08-03T12:07:24.407Z,47.56
2022-08-03T12:08:15.251Z,48.23
2022-08-03T12:09:14.240Z,47.44
2022-08-03T12:10:14.220Z,47.74
2022-08-03T12:11:14.230Z,46.56
2022-08-03T12:12:14.199Z,46.56
2022-08-03T12:14:37.326Z,46.48
2022-08-03T12:14:50.624Z,45.79
2022-08-03T12:15:15.147Z,45.60
2022-08-03T12:16:14.138Z,46.09
2022-08-03T12:17:14.140Z,46.48
2022-08-03T12:18:14.154Z,46.90
2022-08-03T12:19:14.106Z,46.50
2022-08-03T12:20:14.104Z,47.39
2022-08-03T12:21:14.093Z,46.01
2022-08-03T12:22:14.075Z,46.50
2022-08-03T12:23:14.050Z,46.11
2022-08-03T12:24:14.071Z,46.50
2022-08-03T12:25:14.026Z,46.11
2022-08-03T12:26:14.026Z,47.00
2022-08-03T12:27:14.005Z,46.31
2022-08-03T12:28:33.877Z,46.11
2022-08-03T12:29:15.010Z,46.11
2022-08-03T12:30:13.994Z,46.33
2022-08-03T12:31:13.964Z,46.23
2022-08-03T12:32:13.964Z,46.33
2022-08-03T12:33:13.963Z,46.43
2022-08-03T12:34:13.930Z,46.53
2022-08-03T12:35:13.918Z,46.62
2022-08-03T12:36:13.921Z,46.50
2022-08-03T12:37:20.209Z,46.60
2022-08-03T12:38:14.871Z,45.72
2022-08-03T12:39:13.863Z,46.50
2022-08-03T12:40:17.825Z,46.60
2022-08-03T12:41:14.862Z,47.19
2022-08-03T12:42:13.808Z,47.09
2022-08-03T12:43:13.813Z,46.09
2022-08-03T12:44:13.803Z,47.17
2022-08-03T12:45:13.802Z,47.47
2022-08-03T12:46:13.767Z,46.58
2022-08-03T12:47:13.792Z,47.29
2022-08-03T12:48:13.772Z,46.21
2022-08-03T12:49:13.798Z,46.41
2022-08-03T12:50:13.756Z,47.39
2022-08-03T12:51:13.725Z,48.18
2022-08-03T12:52:13.689Z,47.88
2022-08-03T12:53:13.753Z,47.17